createdAt,value
2018-06-14T00:02:04.488Z,3.30
2018-06-14T00:04:32.545Z,3.65
2018-06-14T00:07:00.593Z,2.40
2018-06-14T00:09:28.664Z,3.05
2018-06-14T00:11:56.717Z,2.70
2018-06-14T00:14:24.781Z,3.17
2018-06-14T00:16:52.825Z,2.72
2018-06-14T00:19:20.882Z,4.03
2018-06-14T00:21:48.932Z,3.67
2018-06-14T00:24:17.004Z,2.30
2018-06-14T00:26:45.076Z,6.65
2018-06-14T00:29:13.157Z,2.90
2018-06-14T00:31:41.212Z,2.65
2018-06-14T00:34:09.276Z,2.20
2018-06-14T00:36:37.321Z,2.72
2018-06-14T00:39:06.490Z,3.55
2018-06-14T00:41:34.612Z,2.70
2018-06-14T00:44:02.692Z,4.67
2018-06-14T00:46:30.778Z,2.58
2018-06-14T00:48:58.840Z,3.08
2018-06-14T00:51:26.913Z,1.67
2018-06-14T00:53:54.981Z,2.95
2018-06-14T00:56:23.051Z,2.90
2018-06-14T00:58:51.096Z,3.17
2018-06-14T01:01:19.195Z,2.98
2018-06-14T01:03:47.244Z,2.05
2018-06-14T01:06:15.667Z,3.20
2018-06-14T01:08:43.723Z,4.92
2018-06-14T01:11:11.775Z,3.12
2018-06-14T01:13:39.836Z,3.67
2018-06-14T01:16:09.027Z,2.77
2018-06-14T01:18:37.096Z,2.92
2018-06-14T01:21:05.152Z,3.58
2018-06-14T01:23:33.199Z,7.20
2018-06-14T01:26:01.273Z,3.10
2018-06-14T01:28:29.328Z,2.85
2018-06-14T01:30:57.416Z,3.42
2018-06-14T01:33:25.530Z,3.70
2018-06-14T01:35:53.636Z,2.80
2018-06-14T01:38:24.662Z,4.85
2018-06-14T01:40:52.956Z,3.15
2018-06-14T01:43:21.642Z,4.55
2018-06-14T01:45:49.736Z,3.17
2018-06-14T01:48:18.452Z,3.10
2018-06-14T01:50:46.941Z,3.42
2018-06-14T01:53:15.090Z,3.70
2018-06-14T01:55:43.140Z,3.70
2018-06-14T01:58:11.199Z,3.47
2018-06-14T02:00:39.260Z,3.00
2018-06-14T02:03:07.308Z,3.00
2018-06-14T02:05:35.375Z,3.90
2018-06-14T02:08:03.416Z,2.37
2018-06-14T02:10:31.499Z,2.95
2018-06-14T02:12:59.544Z,2.75
2018-06-14T02:15:28.695Z,2.40
2018-06-14T02:17:57.264Z,4.30
2018-06-14T02:20:25.316Z,3.00
2018-06-14T02:22:53.443Z,5.15
2018-06-14T02:25:21.496Z,2.40
2018-06-14T02:27:49.750Z,3.33
2018-06-14T02:30:17.779Z,2.67
2018-06-14T02:32:45.907Z,2.72
2018-06-14T02:35:14.056Z,2.87
2018-06-14T02:37:42.764Z,2.95
2018-06-14T02:40:12.554Z,3.17
2018-06-14T02:42:41.148Z,3.50
2018-06-14T02:45:09.213Z,3.42
2018-06-14T02:47:37.271Z,3.80
2018-06-14T02:50:05.693Z,3.45
2018-06-14T02:52:33.940Z,2.95
2018-06-14T02:55:01.982Z,6.80
2018-06-14T02:57:30.107Z,1.90
2018-06-14T02:59:58.350Z,2.65
2018-06-14T03:02:26.416Z,1.75
2018-06-14T03:04:54.467Z,3.87
2018-06-14T03:07:27.976Z,2.00
2018-06-14T03:09:56.060Z,2.25
2018-06-14T03:12:24.105Z,2.83
2018-06-14T03:14:52.178Z,3.50
2018-06-14T03:17:21.295Z,2.20
2018-06-14T03:19:50.648Z,2.65
2018-06-14T03:22:18.980Z,1.77
2018-06-14T03:24:47.041Z,2.83
2018-06-14T03:27:15.140Z,3.30
2018-06-14T03:29:43.176Z,4.00
2018-06-14T03:32:11.209Z,3.05
2018-06-14T03:34:39.247Z,4.80
2018-06-14T03:37:07.312Z,5.42
2018-06-14T03:39:35.344Z,3.65
2018-06-14T03:42:08.633Z,4.58
2018-06-14T03:44:37.949Z,3.35
2018-06-14T03:47:07.448Z,2.60
2018-06-14T03:49:36.143Z,2.80
2018-06-14T03:52:04.191Z,2.85
2018-06-14T03:54:32.468Z,2.52
2018-06-14T03:57:00.581Z,2.92
2018-06-14T03:59:28.652Z,3.37
2018-06-14T04:01:56.903Z,1.80
2018-06-14T04:04:25.021Z,2.42
2018-06-14T04:06:53.080Z,3.67
2018-06-14T04:09:21.120Z,4.12
2018-06-14T04:11:49.176Z,3.40
2018-06-14T04:14:17.216Z,3.00
2018-06-14T04:16:45.288Z,2.67
2018-06-14T04:19:13.357Z,2.58
2018-06-14T04:21:41.421Z,2.00
2018-06-14T04:24:09.476Z,3.75
2018-06-14T04:26:37.532Z,2.90
2018-06-14T04:29:05.688Z,2.27
2018-06-14T04:31:33.730Z,1.98
2018-06-14T04:34:01.775Z,3.17
2018-06-14T04:36:29.809Z,4.85
2018-06-14T04:38:57.892Z,3.25
2018-06-14T04:41:25.940Z,4.35
2018-06-14T04:43:53.996Z,3.10
2018-06-14T04:46:22.028Z,3.45
2018-06-14T04:48:50.061Z,3.47
2018-06-14T04:51:18.101Z,2.17
2018-06-14T04:53:46.147Z,3.30
2018-06-14T04:56:14.339Z,4.28
2018-06-14T04:58:42.438Z,4.55
2018-06-14T05:01:10.501Z,3.05
2018-06-14T05:03:38.556Z,4.15
2018-06-14T05:06:06.592Z,3.62
2018-06-14T05:08:34.643Z,3.25
2018-06-14T05:11:02.728Z,3.12
2018-06-14T05:13:30.792Z,3.20
2018-06-14T05:16:01.268Z,4.85
2018-06-14T05:18:29.318Z,2.92
2018-06-14T05:20:57.349Z,3.08
2018-06-14T05:23:25.397Z,2.60
2018-06-14T05:25:53.499Z,3.47
2018-06-14T05:28:21.504Z,3.35
2018-06-14T05:30:49.540Z,4.15
2018-06-14T05:33:17.604Z,4.25
2018-06-14T05:35:45.677Z,4.08
2018-06-14T05:38:13.765Z,4.28
2018-06-14T05:40:41.819Z,2.90
2018-06-14T05:43:09.867Z,3.08
2018-06-14T05:45:37.904Z,5.08
2018-06-14T05:48:05.964Z,4.92
2018-06-14T05:50:34.014Z,3.45
2018-06-14T05:53:02.053Z,4.42
2018-06-14T05:55:30.175Z,3.15
2018-06-14T05:57:58.227Z,4.22
2018-06-14T06:00:26.273Z,3.08
2018-06-14T06:02:54.335Z,3.45
2018-06-14T06:05:22.372Z,4.42
2018-06-14T06:07:50.628Z,4.35
2018-06-14T06:10:18.669Z,6.50
2018-06-14T06:12:46.740Z,4.87
2018-06-14T06:15:14.796Z,3.40
2018-06-14T06:17:42.873Z,4.58
2018-06-14T06:20:17.773Z,4.35
2018-06-14T06:22:46.401Z,4.90
2018-06-14T06:25:14.503Z,4.60
2018-06-14T06:27:42.548Z,6.35
2018-06-14T06:30:10.589Z,5.83
2018-06-14T06:32:38.727Z,5.83
2018-06-14T06:35:06.775Z,6.95
2018-06-14T06:37:34.812Z,4.97
2018-06-14T06:40:02.884Z,4.80
2018-06-14T06:42:30.927Z,5.00
2018-06-14T06:44:59.055Z,5.97
2018-06-14T06:47:27.025Z,4.78
2018-06-14T06:49:55.076Z,6.28
2018-06-14T06:52:23.122Z,4.37
2018-06-14T06:54:51.193Z,5.05
2018-06-14T06:57:19.479Z,6.35
2018-06-14T06:59:47.624Z,6.50
2018-06-14T07:02:15.709Z,6.58
2018-06-14T07:04:43.768Z,5.50
2018-06-14T07:07:11.817Z,6.12
2018-06-14T07:09:39.880Z,6.00
2018-06-14T07:12:07.954Z,6.72
2018-06-14T07:14:36.009Z,5.00
2018-06-14T07:17:04.050Z,5.90
2018-06-14T07:19:32.098Z,4.30
2018-06-14T07:22:00.172Z,8.20
2018-06-14T07:24:28.255Z,8.25
2018-06-14T07:26:56.296Z,7.15
2018-06-14T07:29:24.352Z,7.58
2018-06-14T07:31:52.387Z,9.65
2018-06-14T07:34:20.436Z,8.55
2018-06-14T07:36:48.473Z,8.68
2018-06-14T07:39:16.516Z,7.00
2018-06-14T07:41:44.568Z,11.30
2018-06-14T07:44:12.684Z,7.83
2018-06-14T07:46:40.729Z,7.03
2018-06-14T07:49:08.792Z,8.18
2018-06-14T07:51:36.825Z,9.13
2018-06-14T07:54:04.926Z,10.75
2018-06-14T07:56:32.926Z,9.40
2018-06-14T07:59:00.975Z,10.68
2018-06-14T08:01:29.032Z,9.08
2018-06-14T08:03:57.067Z,8.75
2018-06-14T08:06:25.116Z,5.95
2018-06-14T08:08:53.141Z,8.03
2018-06-14T08:11:21.192Z,9.43
2018-06-14T08:13:49.236Z,8.98
2018-06-14T08:16:17.289Z,8.05
2018-06-14T08:18:45.320Z,6.35
2018-06-14T08:21:13.369Z,9.68
2018-06-14T08:23:41.408Z,10.50
2018-06-14T08:26:09.476Z,10.55
2018-06-14T08:28:37.548Z,12.30
2018-06-14T08:31:05.614Z,12.43
2018-06-14T08:33:33.696Z,12.05
2018-06-14T08:36:01.761Z,12.20
2018-06-14T08:38:30.011Z,15.95
2018-06-14T08:40:58.073Z,17.27
2018-06-14T08:43:26.115Z,15.25
2018-06-14T08:45:54.220Z,14.20
2018-06-14T08:48:22.272Z,14.65
2018-06-14T08:50:50.344Z,13.20
2018-06-14T08:53:18.414Z,11.20
2018-06-14T08:55:46.514Z,13.90
2018-06-14T08:58:14.549Z,9.50
2018-06-14T09:00:42.630Z,15.00
2018-06-14T09:03:12.197Z,16.35
2018-06-14T09:05:40.296Z,18.48
2018-06-14T09:08:08.353Z,17.35
2018-06-14T09:10:36.411Z,13.10
2018-06-14T09:13:04.464Z,14.98
2018-06-14T09:15:32.528Z,17.48
2018-06-14T09:18:00.593Z,19.35
2018-06-14T09:20:28.660Z,25.12
2018-06-14T09:22:56.732Z,23.52
2018-06-14T09:25:24.813Z,24.65
2018-06-14T09:27:52.892Z,26.17
2018-06-14T09:30:21.025Z,24.80
2018-06-14T09:32:49.105Z,19.48
2018-06-14T09:35:17.180Z,16.52
2018-06-14T09:37:45.252Z,24.35
2018-06-14T09:40:13.320Z,18.67
2018-06-14T09:42:41.480Z,23.40
2018-06-14T09:45:09.557Z,19.75
2018-06-14T09:47:37.625Z,27.62
2018-06-14T09:50:05.702Z,20.70
2018-06-14T09:52:33.761Z,16.30
2018-06-14T09:55:01.808Z,18.00
2018-06-14T09:57:29.893Z,21.02
2018-06-14T09:59:57.956Z,21.82
2018-06-14T10:02:26.035Z,15.53
2018-06-14T10:04:54.088Z,21.35
2018-06-14T10:07:22.152Z,36.17
2018-06-14T10:09:50.196Z,32.48
2018-06-14T10:12:18.284Z,22.52
2018-06-14T10:14:46.393Z,31.15
2018-06-14T10:17:14.453Z,37.60
2018-06-14T10:19:42.512Z,26.45
2018-06-14T10:22:10.592Z,29.25
2018-06-14T10:24:38.669Z,38.05
2018-06-14T10:27:06.740Z,23.30
2018-06-14T10:29:34.816Z,33.28
2018-06-14T10:32:02.876Z,25.65
2018-06-14T10:34:30.937Z,35.08
2018-06-14T10:36:59.010Z,28.30
2018-06-14T10:39:27.080Z,38.65
2018-06-14T10:41:55.158Z,35.90
2018-06-14T10:44:23.208Z,35.83
2018-06-14T10:46:51.270Z,33.15
2018-06-14T10:49:19.347Z,27.85
2018-06-14T10:51:47.453Z,36.05
2018-06-14T10:54:15.508Z,30.15
2018-06-14T10:56:43.564Z,27.45
2018-06-14T10:59:11.654Z,44.23
2018-06-14T11:01:39.720Z,45.85
2018-06-14T11:04:07.809Z,45.25
2018-06-14T11:06:35.859Z,35.48
2018-06-14T11:09:05.796Z,29.32
2018-06-14T11:11:33.848Z,29.70
2018-06-14T11:14:01.923Z,30.27
2018-06-14T11:16:29.961Z,37.17
2018-06-14T11:18:58.009Z,27.87
2018-06-14T11:21:26.069Z,41.68
2018-06-14T11:23:54.130Z,38.48
2018-06-14T11:26:22.183Z,37.73
2018-06-14T11:28:50.457Z,36.08
2018-06-14T11:31:18.500Z,34.78
2018-06-14T11:33:46.543Z,27.95
2018-06-14T11:36:14.594Z,25.27
2018-06-14T11:38:42.640Z,22.90
2018-06-14T11:41:10.684Z,23.85
2018-06-14T11:43:38.729Z,45.17
2018-06-14T11:46:06.777Z,29.67
2018-06-14T11:48:34.830Z,35.20
2018-06-14T11:51:02.858Z,37.90
2018-06-14T11:53:30.968Z,27.42
2018-06-14T11:55:59.027Z,27.20
2018-06-14T11:58:27.104Z,32.75
2018-06-14T12:00:55.140Z,39.45
2018-06-14T12:03:23.251Z,29.30
2018-06-14T12:05:51.566Z,37.88
2018-06-14T12:08:19.666Z,38.78
2018-06-14T12:10:47.737Z,35.08
2018-06-14T12:13:15.795Z,32.65
2018-06-14T12:15:43.901Z,39.23
2018-06-14T12:18:12.068Z,42.33
2018-06-14T12:20:40.107Z,41.55
2018-06-14T12:23:08.621Z,34.43
2018-06-14T12:25:36.692Z,47.65
2018-06-14T12:28:05.020Z,45.30
2018-06-14T12:30:33.064Z,47.13
2018-06-14T12:33:01.309Z,40.65
2018-06-14T12:35:29.375Z,49.67
2018-06-14T12:37:57.530Z,36.10
2018-06-14T12:40:25.623Z,40.78
2018-06-14T12:42:53.785Z,35.13
2018-06-14T12:45:21.860Z,49.08
2018-06-14T12:47:49.919Z,30.45
2018-06-14T12:50:18.004Z,32.73
2018-06-14T12:52:46.184Z,32.73
2018-06-14T12:55:14.255Z,33.25
2018-06-14T12:57:42.315Z,39.15
2018-06-14T13:00:10.357Z,47.50
2018-06-14T13:02:38.400Z,37.23
2018-06-14T13:05:06.454Z,42.45
2018-06-14T13:07:34.501Z,40.98
2018-06-14T13:10:02.544Z,50.63
2018-06-14T13:12:30.630Z,49.65
2018-06-14T13:14:58.708Z,44.77
2018-06-14T13:17:26.801Z,46.85
2018-06-14T13:19:54.845Z,36.45
2018-06-14T13:22:22.961Z,63.75
2018-06-14T13:24:51.020Z,48.30
2018-06-14T13:27:19.060Z,47.67
2018-06-14T13:29:47.128Z,44.55
2018-06-14T13:32:15.192Z,40.40
2018-06-14T13:34:43.236Z,52.58
2018-06-14T13:37:11.340Z,47.80
2018-06-14T13:39:39.398Z,35.05
2018-06-14T13:42:07.473Z,36.98
2018-06-14T13:44:35.552Z,33.40
2018-06-14T13:47:03.616Z,40.03
2018-06-14T13:49:31.679Z,33.02
2018-06-14T13:51:59.748Z,32.93
2018-06-14T13:54:27.834Z,41.95
2018-06-14T13:56:55.895Z,29.55
2018-06-14T13:59:23.931Z,30.57
2018-06-14T14:01:51.980Z,32.48
2018-06-14T14:04:20.061Z,32.13
2018-06-14T14:06:48.097Z,37.80
2018-06-14T14:09:16.156Z,29.07
2018-06-14T14:11:44.201Z,42.17
2018-06-14T14:14:12.294Z,42.88
2018-06-14T14:16:40.396Z,38.67
2018-06-14T14:19:08.444Z,42.15
2018-06-14T14:21:36.492Z,44.73
2018-06-14T14:24:04.564Z,38.63
2018-06-14T14:26:32.684Z,32.30
2018-06-14T14:29:00.732Z,36.15
2018-06-14T14:31:28.801Z,33.00
2018-06-14T14:33:56.864Z,30.60
2018-06-14T14:36:24.906Z,42.58
2018-06-14T14:38:52.939Z,47.38
2018-06-14T14:41:20.976Z,41.77
2018-06-14T14:43:49.028Z,30.37
2018-06-14T14:46:17.072Z,28.52
2018-06-14T14:48:45.173Z,28.62
2018-06-14T14:51:13.213Z,38.28
2018-06-14T14:53:41.304Z,28.00
2018-06-14T14:56:09.457Z,43.65
2018-06-14T14:58:37.549Z,51.37
2018-06-14T15:01:05.617Z,48.15
2018-06-14T15:03:33.701Z,41.98
2018-06-14T15:06:01.766Z,41.20
2018-06-14T15:08:30.020Z,46.30
2018-06-14T15:10:58.108Z,54.60
2018-06-14T15:13:26.161Z,45.48
2018-06-14T15:15:54.267Z,37.88
2018-06-14T15:18:22.308Z,36.83
2018-06-14T15:20:50.356Z,47.40
2018-06-14T15:23:18.400Z,38.33
2018-06-14T15:25:46.498Z,30.97
2018-06-14T15:28:14.583Z,39.67
2018-06-14T15:30:42.664Z,45.73
2018-06-14T15:33:10.725Z,53.42
2018-06-14T15:35:38.797Z,55.17
2018-06-14T15:38:06.868Z,46.13
2018-06-14T15:40:34.926Z,44.88
2018-06-14T15:43:03.040Z,47.03
2018-06-14T15:45:31.146Z,53.70
2018-06-14T15:47:59.252Z,45.70
2018-06-14T15:50:27.300Z,32.60
2018-06-14T15:52:55.340Z,39.60
2018-06-14T15:55:34.800Z,36.00
2018-06-14T15:58:02.861Z,35.17
2018-06-14T16:00:30.968Z,36.98
2018-06-14T16:02:59.004Z,38.20
2018-06-14T16:05:27.108Z,30.00
2018-06-14T16:07:55.190Z,41.08
2018-06-14T16:10:23.234Z,34.43
2018-06-14T16:12:51.333Z,33.13
2018-06-14T16:15:19.391Z,31.37
2018-06-14T16:17:47.460Z,32.03
2018-06-14T16:20:15.522Z,29.65
2018-06-14T16:22:43.588Z,34.73
2018-06-14T16:25:11.720Z,30.48
2018-06-14T16:27:40.217Z,34.23
2018-06-14T16:30:08.340Z,29.10
2018-06-14T16:32:36.392Z,33.18
2018-06-14T16:35:04.852Z,28.65
2018-06-14T16:37:32.901Z,30.70
2018-06-14T16:40:01.014Z,35.52
2018-06-14T16:42:29.082Z,27.62
2018-06-14T16:44:57.200Z,27.07
2018-06-14T16:47:25.237Z,31.93
2018-06-14T16:49:53.294Z,28.23
2018-06-14T16:52:21.384Z,30.43
2018-06-14T16:54:49.436Z,30.57
2018-06-14T16:57:17.496Z,23.77
2018-06-14T16:59:45.548Z,22.42
2018-06-14T17:02:13.648Z,22.37
2018-06-14T17:04:41.753Z,23.15
2018-06-14T17:07:09.832Z,36.85
2018-06-14T17:09:37.872Z,33.98
2018-06-14T17:12:05.974Z,25.72
2018-06-14T17:14:34.144Z,31.10
2018-06-14T17:17:02.240Z,29.57
2018-06-14T17:19:30.286Z,27.05
2018-06-14T17:21:58.444Z,21.82
2018-06-14T17:24:27.323Z,22.95
2018-06-14T17:26:57.561Z,17.52
2018-06-14T17:29:26.636Z,23.38
2018-06-14T17:31:54.701Z,29.85
2018-06-14T17:34:22.751Z,17.42
2018-06-14T17:36:51.229Z,17.12
2018-06-14T17:39:19.296Z,22.93
2018-06-14T17:41:47.738Z,50.92
2018-06-14T17:44:15.873Z,29.52
2018-06-14T17:46:43.935Z,31.00
2018-06-14T17:49:11.986Z,25.52
2018-06-14T17:51:40.049Z,23.25
2018-06-14T17:54:08.205Z,20.70
2018-06-14T17:56:36.273Z,17.98
2018-06-14T17:59:04.376Z,20.75
2018-06-14T18:01:32.463Z,19.45
2018-06-14T18:04:00.512Z,17.15
2018-06-14T18:06:28.606Z,15.93
2018-06-14T18:08:56.657Z,18.10
2018-06-14T18:11:24.924Z,21.73
2018-06-14T18:13:52.985Z,16.75
2018-06-14T18:16:21.052Z,16.93
2018-06-14T18:18:49.093Z,17.42
2018-06-14T18:21:17.144Z,17.90
2018-06-14T18:23:45.236Z,17.42
2018-06-14T18:26:13.316Z,15.30
2018-06-14T18:28:41.372Z,12.05
2018-06-14T18:31:09.444Z,12.70
2018-06-14T18:33:37.503Z,15.00
2018-06-14T18:36:05.618Z,18.85
2018-06-14T18:38:33.696Z,14.25
2018-06-14T18:41:01.756Z,17.98
2018-06-14T18:43:29.826Z,12.43
2018-06-14T18:45:58.086Z,12.55
2018-06-14T18:48:26.150Z,15.88
2018-06-14T18:50:54.235Z,13.05
2018-06-14T18:53:22.512Z,15.13
2018-06-14T18:55:50.577Z,19.27
2018-06-14T18:58:18.630Z,14.35
2018-06-14T19:00:46.712Z,16.17
2018-06-14T19:03:14.781Z,13.30
2018-06-14T19:05:42.872Z,16.55
2018-06-14T19:08:11.004Z,14.00
2018-06-14T19:10:39.061Z,15.13
2018-06-14T19:13:07.132Z,20.08
2018-06-14T19:15:35.176Z,13.30
2018-06-14T19:18:03.246Z,14.15
2018-06-14T19:20:31.296Z,15.30
2018-06-14T19:22:59.356Z,14.15
2018-06-14T19:25:27.418Z,13.00
2018-06-14T19:27:55.549Z,16.27
2018-06-14T19:30:23.734Z,13.05
2018-06-14T19:32:51.803Z,16.15
2018-06-14T19:35:19.877Z,14.83
2018-06-14T19:37:48.005Z,15.05
2018-06-14T19:40:16.081Z,16.67
2018-06-14T19:42:44.140Z,16.50
2018-06-14T19:45:12.188Z,18.27
2018-06-14T19:47:40.272Z,13.75
2018-06-14T19:50:08.327Z,11.50
2018-06-14T19:52:36.397Z,14.10
2018-06-14T19:55:04.534Z,19.67
2018-06-14T19:57:32.600Z,16.70
2018-06-14T20:00:00.664Z,16.60
2018-06-14T20:02:28.749Z,16.73
2018-06-14T20:04:56.796Z,22.75
2018-06-14T20:07:24.856Z,21.40
2018-06-14T20:09:52.935Z,12.45
2018-06-14T20:12:21.001Z,13.30
2018-06-14T20:14:49.057Z,12.78
2018-06-14T20:17:17.153Z,16.00
2018-06-14T20:19:45.196Z,14.33
2018-06-14T20:22:14.064Z,19.50
2018-06-14T20:24:42.124Z,19.05
2018-06-14T20:27:10.237Z,14.90
2018-06-14T20:29:38.289Z,14.70
2018-06-14T20:32:06.397Z,12.33
2018-06-14T20:34:34.472Z,15.20
2018-06-14T20:37:02.528Z,14.43
2018-06-14T20:39:30.612Z,19.27
2018-06-14T20:41:58.762Z,13.03
2018-06-14T20:44:26.744Z,18.40
2018-06-14T20:46:54.802Z,14.50
2018-06-14T20:49:22.916Z,15.08
2018-06-14T20:51:51.029Z,15.32
2018-06-14T20:54:19.079Z,16.70
2018-06-14T20:56:47.137Z,13.40
2018-06-14T20:59:15.203Z,14.95
2018-06-14T21:01:43.303Z,15.80
2018-06-14T21:04:11.416Z,14.15
2018-06-14T21:06:39.476Z,11.45
2018-06-14T21:09:08.878Z,12.85
2018-06-14T21:11:36.981Z,13.83
2018-06-14T21:14:05.041Z,12.68
2018-06-14T21:16:33.105Z,9.90
2018-06-14T21:19:01.197Z,10.55
2018-06-14T21:21:29.351Z,11.68
2018-06-14T21:23:57.508Z,10.48
2018-06-14T21:26:25.583Z,10.53
2018-06-14T21:28:53.656Z,11.68
2018-06-14T21:31:21.764Z,12.18
2018-06-14T21:33:49.829Z,14.90
2018-06-14T21:36:17.900Z,16.50
2018-06-14T21:38:45.984Z,12.18
2018-06-14T21:41:14.044Z,10.95
2018-06-14T21:43:42.109Z,15.48
2018-06-14T21:46:10.164Z,13.85
2018-06-14T21:48:38.232Z,14.23
2018-06-14T21:51:06.299Z,14.93
2018-06-14T21:53:34.376Z,12.30
2018-06-14T21:56:02.424Z,12.50
2018-06-14T21:58:30.512Z,11.57
2018-06-14T22:00:58.595Z,14.65
2018-06-14T22:03:32.176Z,17.15
2018-06-14T22:06:00.236Z,15.30
2018-06-14T22:08:28.324Z,15.75
2018-06-14T22:10:56.414Z,14.78
2018-06-14T22:13:24.492Z,13.58
2018-06-14T22:15:52.545Z,13.90
2018-06-14T22:18:20.615Z,19.62
2018-06-14T22:20:48.685Z,15.05
2018-06-14T22:23:16.756Z,17.90
2018-06-14T22:25:44.833Z,11.33
2018-06-14T22:28:12.894Z,17.40
2018-06-14T22:30:40.996Z,17.30
2018-06-14T22:33:20.475Z,14.43
2018-06-14T22:35:48.545Z,12.60
2018-06-14T22:38:16.589Z,14.13
2018-06-14T22:40:44.655Z,19.95
2018-06-14T22:43:12.717Z,14.00
2018-06-14T22:45:40.780Z,16.82
2018-06-14T22:48:08.832Z,21.68
2018-06-14T22:50:48.246Z,14.58
2018-06-14T22:53:16.297Z,15.25
2018-06-14T22:55:44.367Z,14.63
2018-06-14T22:58:12.416Z,17.17
2018-06-14T23:01:47.955Z,16.50
2018-06-14T23:04:20.197Z,13.98
2018-06-14T23:06:48.312Z,10.63
2018-06-14T23:10:57.098Z,18.05
2018-06-14T23:13:25.173Z,18.85
2018-06-14T23:15:53.220Z,18.32
2018-06-14T23:18:21.285Z,14.25
2018-06-14T23:20:49.385Z,20.35
2018-06-14T23:23:17.483Z,14.58
2018-06-14T23:25:45.524Z,17.67
2018-06-14T23:28:13.588Z,22.22
2018-06-14T23:30:41.653Z,19.40
2018-06-14T23:33:09.698Z,17.02
2018-06-14T23:35:37.775Z,11.78
2018-06-14T23:38:05.830Z,14.90
2018-06-14T23:40:33.900Z,15.65
2018-06-14T23:43:01.953Z,16.45
2018-06-14T23:45:29.992Z,14.70
2018-06-14T23:47:58.054Z,17.10
2018-06-14T23:50:26.112Z,17.27
2018-06-14T23:52:54.176Z,17.82
2018-06-14T23:55:22.216Z,12.00
2018-06-14T23:57:50.290Z,16.40
